sensor_id;sensor_type;location;lat;lon;timestamp;P1;durP1;ratioP1;P2;durP2;ratioP2
58657;SDS011;44428;45.630;13.786;2023-01-13T00:00:03;8.75;;;4.53;;
58657;SDS011;44428;45.630;13.786;2023-01-13T00:02:37;10.93;;;4.78;;
58657;SDS011;44428;45.630;13.786;2023-01-13T00:05:03;8.07;;;4.85;;
58657;SDS011;44428;45.630;13.786;2023-01-13T00:07:29;8.77;;;5.03;;
58657;SDS011;44428;45.630;13.786;2023-01-13T00:09:54;9.00;;;4.75;;
58657;SDS011;44428;45.630;13.786;2023-01-13T00:12:20;9.05;;;4.75;;
58657;SDS011;44428;45.630;13.786;2023-01-13T00:14:46;8.63;;;4.85;;
58657;SDS011;44428;45.630;13.786;2023-01-13T00:17:11;7.75;;;4.63;;
58657;SDS011;44428;45.630;13.786;2023-01-13T00:19:37;9.43;;;4.75;;
58657;SDS011;44428;45.630;13.786;2023-01-13T00:22:03;8.02;;;4.72;;
58657;SDS011;44428;45.630;13.786;2023-01-13T00:24:29;10.88;;;4.40;;
58657;SDS011;44428;45.630;13.786;2023-01-13T00:26:55;7.88;;;4.68;;
58657;SDS011;44428;45.630;13.786;2023-01-13T00:29:21;7.65;;;4.07;;
58657;SDS011;44428;45.630;13.786;2023-01-13T00:31:47;8.63;;;4.00;;
58657;SDS011;44428;45.630;13.786;2023-01-13T00:34:13;6.25;;;3.88;;
58657;SDS011;44428;45.630;13.786;2023-01-13T00:36:39;8.32;;;4.20;;
58657;SDS011;44428;45.630;13.786;2023-01-13T00:39:05;8.05;;;4.57;;
58657;SDS011;44428;45.630;13.786;2023-01-13T00:41:31;8.35;;;4.28;;
58657;SDS011;44428;45.630;13.786;2023-01-13T00:44:16;7.00;;;4.13;;
58657;SDS011;44428;45.630;13.786;2023-01-13T00:46:42;8.25;;;4.38;;
58657;SDS011;44428;45.630;13.786;2023-01-13T00:49:08;6.57;;;3.72;;
58657;SDS011;44428;45.630;13.786;2023-01-13T00:51:33;6.28;;;3.95;;
58657;SDS011;44428;45.630;13.786;2023-01-13T00:53:59;6.93;;;3.97;;
58657;SDS011;44428;45.630;13.786;2023-01-13T00:56:25;8.90;;;3.95;;
58657;SDS011;44428;45.630;13.786;2023-01-13T00:58:50;6.00;;;3.50;;
58657;SDS011;44428;45.630;13.786;2023-01-13T01:01:17;5.82;;;3.33;;
58657;SDS011;44428;45.630;13.786;2023-01-13T01:03:48;6.85;;;3.40;;
58657;SDS011;44428;45.630;13.786;2023-01-13T01:06:16;6.55;;;3.63;;
58657;SDS011;44428;45.630;13.786;2023-01-13T01:08:43;5.47;;;3.33;;
58657;SDS011;44428;45.630;13.786;2023-01-13T01:11:11;7.78;;;3.30;;
58657;SDS011;44428;45.630;13.786;2023-01-13T01:13:45;9.13;;;4.00;;
58657;SDS011;44428;45.630;13.786;2023-01-13T01:16:14;5.57;;;3.50;;
58657;SDS011;44428;45.630;13.786;2023-01-13T01:18:42;5.28;;;2.97;;
58657;SDS011;44428;45.630;13.786;2023-01-13T01:21:10;5.70;;;2.90;;
58657;SDS011;44428;45.630;13.786;2023-01-13T01:23:36;6.47;;;3.10;;
58657;SDS011;44428;45.630;13.786;2023-01-13T01:26:24;6.40;;;3.05;;
58657;SDS011;44428;45.630;13.786;2023-01-13T01:28:50;8.98;;;3.22;;
58657;SDS011;44428;45.630;13.786;2023-01-13T01:31:17;7.72;;;3.15;;
58657;SDS011;44428;45.630;13.786;2023-01-13T01:33:48;5.55;;;2.85;;
58657;SDS011;44428;45.630;13.786;2023-01-13T01:36:15;6.53;;;2.80;;
58657;SDS011;44428;45.630;13.786;2023-01-13T01:38:43;5.30;;;3.25;;
58657;SDS011;44428;45.630;13.786;2023-01-13T01:41:16;6.22;;;3.58;;
58657;SDS011;44428;45.630;13.786;2023-01-13T01:43:52;6.43;;;3.17;;
58657;SDS011;44428;45.630;13.786;2023-01-13T01:46:30;9.15;;;3.47;;
58657;SDS011;44428;45.630;13.786;2023-01-13T01:51:31;6.13;;;3.22;;
58657;SDS011;44428;45.630;13.786;2023-01-13T01:56:28;5.75;;;3.25;;
58657;SDS011;44428;45.630;13.786;2023-01-13T01:58:55;5.70;;;3.05;;
58657;SDS011;44428;45.630;13.786;2023-01-13T02:01:21;6.13;;;3.22;;
58657;SDS011;44428;45.630;13.786;2023-01-13T02:03:50;7.53;;;3.33;;
58657;SDS011;44428;45.630;13.786;2023-01-13T02:06:20;5.65;;;3.05;;
58657;SDS011;44428;45.630;13.786;2023-01-13T02:08:47;9.00;;;3.60;;
58657;SDS011;44428;45.630;13.786;2023-01-13T02:11:25;6.07;;;2.97;;
58657;SDS011;44428;45.630;13.786;2023-01-13T02:14:16;7.53;;;3.40;;
58657;SDS011;44428;45.630;13.786;2023-01-13T02:16:46;5.63;;;2.65;;
58657;SDS011;44428;45.630;13.786;2023-01-13T02:22:14;4.35;;;2.28;;
58657;SDS011;44428;45.630;13.786;2023-01-13T02:30:48;7.78;;;2.45;;
58657;SDS011;44428;45.630;13.786;2023-01-13T02:39:14;5.03;;;2.00;;
58657;SDS011;44428;45.630;13.786;2023-01-13T02:44:56;4.32;;;2.22;;
58657;SDS011;44428;45.630;13.786;2023-01-13T02:47:26;4.97;;;1.95;;
58657;SDS011;44428;45.630;13.786;2023-01-13T02:49:56;5.53;;;2.08;;
58657;SDS011;44428;45.630;13.786;2023-01-13T02:55:17;5.03;;;2.20;;
58657;SDS011;44428;45.630;13.786;2023-01-13T02:57:46;5.53;;;1.92;;
58657;SDS011;44428;45.630;13.786;2023-01-13T03:00:13;5.57;;;2.30;;
58657;SDS011;44428;45.630;13.786;2023-01-13T03:02:41;4.97;;;2.13;;
58657;SDS011;44428;45.630;13.786;2023-01-13T03:05:09;4.97;;;2.08;;
58657;SDS011;44428;45.630;13.786;2023-01-13T03:10:26;4.57;;;2.20;;
58657;SDS011;44428;45.630;13.786;2023-01-13T03:13:20;4.75;;;1.77;;
58657;SDS011;44428;45.630;13.786;2023-01-13T03:21:14;7.68;;;2.22;;
58657;SDS011;44428;45.630;13.786;2023-01-13T03:24:12;3.75;;;1.85;;
58657;SDS011;44428;45.630;13.786;2023-01-13T03:26:52;5.30;;;2.15;;
58657;SDS011;44428;45.630;13.786;2023-01-13T03:29:34;4.50;;;1.95;;
58657;SDS011;44428;45.630;13.786;2023-01-13T03:32:07;4.57;;;1.95;;
58657;SDS011;44428;45.630;13.786;2023-01-13T03:34:48;4.38;;;2.00;;
58657;SDS011;44428;45.630;13.786;2023-01-13T03:37:18;5.93;;;2.03;;
58657;SDS011;44428;45.630;13.786;2023-01-13T03:39:49;5.75;;;1.85;;
58657;SDS011;44428;45.630;13.786;2023-01-13T03:42:27;2.92;;;1.40;;
58657;SDS011;44428;45.630;13.786;2023-01-13T03:44:58;2.87;;;1.60;;
58657;SDS011;44428;45.630;13.786;2023-01-13T03:47:30;2.72;;;1.30;;
58657;SDS011;44428;45.630;13.786;2023-01-13T03:50:07;3.25;;;1.65;;
58657;SDS011;44428;45.630;13.786;2023-01-13T03:52:40;2.75;;;1.58;;
58657;SDS011;44428;45.630;13.786;2023-01-13T03:55:13;2.85;;;1.17;;
58657;SDS011;44428;45.630;13.786;2023-01-13T03:57:47;1.73;;;0.98;;
58657;SDS011;44428;45.630;13.786;2023-01-13T04:00:30;4.43;;;1.30;;
58657;SDS011;44428;45.630;13.786;2023-01-13T04:03:06;2.75;;;1.33;;
58657;SDS011;44428;45.630;13.786;2023-01-13T04:05:38;3.90;;;1.20;;
58657;SDS011;44428;45.630;13.786;2023-01-13T04:08:17;2.55;;;1.10;;
58657;SDS011;44428;45.630;13.786;2023-01-13T04:10:50;2.95;;;1.15;;
58657;SDS011;44428;45.630;13.786;2023-01-13T04:13:23;3.83;;;1.30;;
58657;SDS011;44428;45.630;13.786;2023-01-13T04:20:47;3.42;;;1.40;;
58657;SDS011;44428;45.630;13.786;2023-01-13T04:23:14;3.72;;;1.55;;
58657;SDS011;44428;45.630;13.786;2023-01-13T04:25:41;3.72;;;1.55;;
58657;SDS011;44428;45.630;13.786;2023-01-13T04:28:08;5.40;;;2.10;;
58657;SDS011;44428;45.630;13.786;2023-01-13T04:30:35;4.50;;;1.98;;
58657;SDS011;44428;45.630;13.786;2023-01-13T04:33:01;3.33;;;1.40;;
58657;SDS011;44428;45.630;13.786;2023-01-13T04:35:28;5.68;;;2.35;;
58657;SDS011;44428;45.630;13.786;2023-01-13T04:37:55;3.63;;;1.60;;
58657;SDS011;44428;45.630;13.786;2023-01-13T04:40:20;3.47;;;1.52;;
58657;SDS011;44428;45.630;13.786;2023-01-13T04:42:46;4.50;;;1.45;;
58657;SDS011;44428;45.630;13.786;2023-01-13T04:45:12;6.53;;;1.48;;
58657;SDS011;44428;45.630;13.786;2023-01-13T04:47:38;2.92;;;1.23;;
58657;SDS011;44428;45.630;13.786;2023-01-13T04:50:06;3.45;;;1.20;;
58657;SDS011;44428;45.630;13.786;2023-01-13T04:52:32;2.33;;;0.95;;
58657;SDS011;44428;45.630;13.786;2023-01-13T04:54:58;3.63;;;1.13;;
58657;SDS011;44428;45.630;13.786;2023-01-13T04:57:24;2.22;;;1.10;;
58657;SDS011;44428;45.630;13.786;2023-01-13T04:59:50;2.65;;;1.17;;
58657;SDS011;44428;45.630;13.786;2023-01-13T05:02:16;2.60;;;0.95;;
58657;SDS011;44428;45.630;13.786;2023-01-13T05:04:47;3.58;;;1.50;;
58657;SDS011;44428;45.630;13.786;2023-01-13T05:07:13;2.88;;;1.55;;
58657;SDS011;44428;45.630;13.786;2023-01-13T05:09:40;3.60;;;1.77;;
58657;SDS011;44428;45.630;13.786;2023-01-13T05:12:08;3.53;;;1.70;;
58657;SDS011;44428;45.630;13.786;2023-01-13T05:14:54;5.15;;;1.60;;
58657;SDS011;44428;45.630;13.786;2023-01-13T05:17:38;4.10;;;1.70;;
58657;SDS011;44428;45.630;13.786;2023-01-13T05:20:05;3.53;;;1.33;;
58657;SDS011;44428;45.630;13.786;2023-01-13T05:22:32;2.65;;;1.08;;
58657;SDS011;44428;45.630;13.786;2023-01-13T05:25:17;3.88;;;1.35;;
58657;SDS011;44428;45.630;13.786;2023-01-13T05:27:53;4.25;;;1.60;;
58657;SDS011;44428;45.630;13.786;2023-01-13T05:30:22;2.45;;;1.30;;
58657;SDS011;44428;45.630;13.786;2023-01-13T05:32:49;3.08;;;1.58;;
58657;SDS011;44428;45.630;13.786;2023-01-13T05:35:15;3.03;;;1.55;;
58657;SDS011;44428;45.630;13.786;2023-01-13T05:37:41;3.35;;;1.50;;
58657;SDS011;44428;45.630;13.786;2023-01-13T05:40:12;4.28;;;1.88;;
58657;SDS011;44428;45.630;13.786;2023-01-13T05:46:05;4.03;;;1.90;;
58657;SDS011;44428;45.630;13.786;2023-01-13T05:48:37;4.90;;;2.42;;
58657;SDS011;44428;45.630;13.786;2023-01-13T05:51:06;4.82;;;2.42;;
58657;SDS011;44428;45.630;13.786;2023-01-13T05:53:33;5.78;;;3.35;;
58657;SDS011;44428;45.630;13.786;2023-01-13T05:56:02;4.65;;;2.30;;
58657;SDS011;44428;45.630;13.786;2023-01-13T05:58:29;5.60;;;2.00;;
58657;SDS011;44428;45.630;13.786;2023-01-13T06:00:58;3.72;;;2.05;;
58657;SDS011;44428;45.630;13.786;2023-01-13T06:03:25;5.10;;;2.20;;
58657;SDS011;44428;45.630;13.786;2023-01-13T06:05:51;4.47;;;2.10;;
58657;SDS011;44428;45.630;13.786;2023-01-13T06:08:22;4.20;;;1.83;;
58657;SDS011;44428;45.630;13.786;2023-01-13T06:10:49;4.00;;;1.80;;
58657;SDS011;44428;45.630;13.786;2023-01-13T06:13:14;3.75;;;1.75;;
58657;SDS011;44428;45.630;13.786;2023-01-13T06:15:41;3.88;;;1.83;;
58657;SDS011;44428;45.630;13.786;2023-01-13T06:18:06;4.63;;;2.13;;
58657;SDS011;44428;45.630;13.786;2023-01-13T06:20:33;4.80;;;2.03;;
58657;SDS011;44428;45.630;13.786;2023-01-13T06:22:59;6.60;;;2.45;;
58657;SDS011;44428;45.630;13.786;2023-01-13T06:28:28;7.63;;;2.85;;
58657;SDS011;44428;45.630;13.786;2023-01-13T06:30:55;5.03;;;2.60;;
58657;SDS011;44428;45.630;13.786;2023-01-13T06:33:26;4.57;;;2.28;;
58657;SDS011;44428;45.630;13.786;2023-01-13T06:35:59;6.25;;;2.67;;
58657;SDS011;44428;45.630;13.786;2023-01-13T06:38:29;4.22;;;2.17;;
58657;SDS011;44428;45.630;13.786;2023-01-13T06:41:00;5.03;;;2.72;;
58657;SDS011;44428;45.630;13.786;2023-01-13T06:43:26;5.18;;;3.10;;
58657;SDS011;44428;45.630;13.786;2023-01-13T06:45:53;6.30;;;3.17;;
58657;SDS011;44428;45.630;13.786;2023-01-13T06:48:21;6.38;;;3.00;;
58657;SDS011;44428;45.630;13.786;2023-01-13T06:50:49;5.80;;;3.03;;
58657;SDS011;44428;45.630;13.786;2023-01-13T06:53:15;8.40;;;3.88;;
58657;SDS011;44428;45.630;13.786;2023-01-13T06:55:40;5.97;;;3.30;;
58657;SDS011;44428;45.630;13.786;2023-01-13T06:58:06;7.20;;;3.65;;
58657;SDS011;44428;45.630;13.786;2023-01-13T07:00:32;10.60;;;4.18;;
58657;SDS011;44428;45.630;13.786;2023-01-13T07:03:19;10.13;;;4.38;;
58657;SDS011;44428;45.630;13.786;2023-01-13T07:05:52;8.30;;;3.58;;
58657;SDS011;44428;45.630;13.786;2023-01-13T07:08:21;7.00;;;3.78;;
58657;SDS011;44428;45.630;13.786;2023-01-13T07:10:47;9.00;;;3.03;;
58657;SDS011;44428;45.630;13.786;2023-01-13T07:13:13;6.82;;;3.80;;
58657;SDS011;44428;45.630;13.786;2023-01-13T07:15:59;6.43;;;3.38;;
58657;SDS011;44428;45.630;13.786;2023-01-13T07:18:26;7.10;;;4.03;;
58657;SDS011;44428;45.630;13.786;2023-01-13T07:21:05;7.78;;;4.13;;
58657;SDS011;44428;45.630;13.786;2023-01-13T07:23:34;8.82;;;4.35;;
58657;SDS011;44428;45.630;13.786;2023-01-13T07:26:04;10.50;;;4.15;;
58657;SDS011;44428;45.630;13.786;2023-01-13T07:28:31;6.68;;;3.40;;
58657;SDS011;44428;45.630;13.786;2023-01-13T07:30:58;10.52;;;3.40;;
58657;SDS011;44428;45.630;13.786;2023-01-13T07:33:24;8.55;;;3.25;;
58657;SDS011;44428;45.630;13.786;2023-01-13T07:35:56;6.70;;;3.20;;
58657;SDS011;44428;45.630;13.786;2023-01-13T07:38:23;6.82;;;3.20;;
58657;SDS011;44428;45.630;13.786;2023-01-13T07:40:50;7.50;;;3.15;;
58657;SDS011;44428;45.630;13.786;2023-01-13T07:43:15;6.65;;;3.05;;
58657;SDS011;44428;45.630;13.786;2023-01-13T07:46:05;5.78;;;2.97;;
58657;SDS011;44428;45.630;13.786;2023-01-13T07:48:32;7.22;;;3.10;;
58657;SDS011;44428;45.630;13.786;2023-01-13T07:51:05;8.95;;;3.22;;
58657;SDS011;44428;45.630;13.786;2023-01-13T07:53:33;9.00;;;3.42;;
58657;SDS011;44428;45.630;13.786;2023-01-13T07:55:59;7.43;;;3.47;;
58657;SDS011;44428;45.630;13.786;2023-01-13T07:58:26;10.38;;;4.25;;
58657;SDS011;44428;45.630;13.786;2023-01-13T08:00:53;10.68;;;3.95;;
58657;SDS011;44428;45.630;13.786;2023-01-13T08:03:19;9.15;;;4.82;;
58657;SDS011;44428;45.630;13.786;2023-01-13T08:05:46;10.55;;;5.75;;
58657;SDS011;44428;45.630;13.786;2023-01-13T08:08:11;10.57;;;6.38;;
58657;SDS011;44428;45.630;13.786;2023-01-13T08:10:38;9.45;;;7.05;;
58657;SDS011;44428;45.630;13.786;2023-01-13T08:13:13;11.60;;;6.60;;
58657;SDS011;44428;45.630;13.786;2023-01-13T08:15:42;10.77;;;5.32;;
58657;SDS011;44428;45.630;13.786;2023-01-13T08:18:08;8.77;;;4.50;;
58657;SDS011;44428;45.630;13.786;2023-01-13T08:20:34;8.10;;;3.58;;
58657;SDS011;44428;45.630;13.786;2023-01-13T08:23:00;6.35;;;4.03;;
58657;SDS011;44428;45.630;13.786;2023-01-13T08:25:27;7.40;;;4.57;;
58657;SDS011;44428;45.630;13.786;2023-01-13T08:27:53;8.10;;;4.10;;
58657;SDS011;44428;45.630;13.786;2023-01-13T08:30:20;9.10;;;4.50;;
58657;SDS011;44428;45.630;13.786;2023-01-13T08:32:46;8.32;;;4.82;;
58657;SDS011;44428;45.630;13.786;2023-01-13T08:35:13;9.60;;;4.40;;
58657;SDS011;44428;45.630;13.786;2023-01-13T08:37:40;9.23;;;4.53;;
58657;SDS011;44428;45.630;13.786;2023-01-13T08:40:06;9.55;;;4.70;;
58657;SDS011;44428;45.630;13.786;2023-01-13T08:42:32;8.85;;;4.65;;
58657;SDS011;44428;45.630;13.786;2023-01-13T08:44:58;9.27;;;4.32;;
58657;SDS011;44428;45.630;13.786;2023-01-13T08:47:25;12.02;;;4.47;;
58657;SDS011;44428;45.630;13.786;2023-01-13T08:49:51;10.18;;;4.22;;
58657;SDS011;44428;45.630;13.786;2023-01-13T08:52:17;8.63;;;4.60;;
58657;SDS011;44428;45.630;13.786;2023-01-13T08:54:44;11.48;;;5.32;;
58657;SDS011;44428;45.630;13.786;2023-01-13T08:57:09;11.13;;;4.60;;
58657;SDS011;44428;45.630;13.786;2023-01-13T08:59:35;14.98;;;4.72;;
58657;SDS011;44428;45.630;13.786;2023-01-13T09:02:01;8.57;;;4.97;;
58657;SDS011;44428;45.630;13.786;2023-01-13T09:04:28;11.55;;;6.53;;
58657;SDS011;44428;45.630;13.786;2023-01-13T09:06:55;13.82;;;6.75;;
58657;SDS011;44428;45.630;13.786;2023-01-13T09:09:21;17.65;;;6.85;;
58657;SDS011;44428;45.630;13.786;2023-01-13T09:11:49;15.07;;;7.95;;
58657;SDS011;44428;45.630;13.786;2023-01-13T09:14:35;20.17;;;8.10;;
58657;SDS011;44428;45.630;13.786;2023-01-13T09:17:02;14.30;;;7.90;;
58657;SDS011;44428;45.630;13.786;2023-01-13T09:19:28;13.55;;;7.38;;
58657;SDS011;44428;45.630;13.786;2023-01-13T09:21:54;15.13;;;7.80;;
58657;SDS011;44428;45.630;13.786;2023-01-13T09:24:21;15.23;;;7.68;;
58657;SDS011;44428;45.630;13.786;2023-01-13T09:26:48;16.23;;;7.45;;
58657;SDS011;44428;45.630;13.786;2023-01-13T09:29:14;13.70;;;8.32;;
58657;SDS011;44428;45.630;13.786;2023-01-13T09:31:40;18.90;;;8.57;;
58657;SDS011;44428;45.630;13.786;2023-01-13T09:34:07;20.55;;;11.07;;
58657;SDS011;44428;45.630;13.786;2023-01-13T09:36:56;17.80;;;9.65;;
58657;SDS011;44428;45.630;13.786;2023-01-13T09:39:22;13.48;;;8.80;;
58657;SDS011;44428;45.630;13.786;2023-01-13T09:41:52;14.95;;;8.38;;
58657;SDS011;44428;45.630;13.786;2023-01-13T09:44:50;21.75;;;8.57;;
58657;SDS011;44428;45.630;13.786;2023-01-13T09:47:25;16.63;;;8.10;;
58657;SDS011;44428;45.630;13.786;2023-01-13T09:50:19;16.08;;;8.93;;
58657;SDS011;44428;45.630;13.786;2023-01-13T09:53:02;14.77;;;8.25;;
58657;SDS011;44428;45.630;13.786;2023-01-13T09:55:33;16.55;;;8.63;;
58657;SDS011;44428;45.630;13.786;2023-01-13T09:58:09;13.77;;;8.57;;
58657;SDS011;44428;45.630;13.786;2023-01-13T10:00:41;13.27;;;8.52;;
58657;SDS011;44428;45.630;13.786;2023-01-13T10:03:25;16.13;;;8.48;;
58657;SDS011;44428;45.630;13.786;2023-01-13T10:08:41;17.85;;;8.40;;
58657;SDS011;44428;45.630;13.786;2023-01-13T10:11:12;17.75;;;9.50;;
58657;SDS011;44428;45.630;13.786;2023-01-13T10:13:58;14.35;;;9.30;;
58657;SDS011;44428;45.630;13.786;2023-01-13T10:16:32;16.23;;;8.70;;
58657;SDS011;44428;45.630;13.786;2023-01-13T10:19:17;16.13;;;8.60;;
58657;SDS011;44428;45.630;13.786;2023-01-13T10:27:42;23.00;;;10.52;;
58657;SDS011;44428;45.630;13.786;2023-01-13T10:32:58;22.98;;;11.63;;
58657;SDS011;44428;45.630;13.786;2023-01-13T10:38:25;31.33;;;11.88;;
58657;SDS011;44428;45.630;13.786;2023-01-13T10:41:32;23.55;;;11.40;;
58657;SDS011;44428;45.630;13.786;2023-01-13T10:44:00;21.85;;;11.45;;
58657;SDS011;44428;45.630;13.786;2023-01-13T10:46:29;28.30;;;11.40;;
58657;SDS011;44428;45.630;13.786;2023-01-13T10:48:59;25.88;;;11.20;;
58657;SDS011;44428;45.630;13.786;2023-01-13T10:51:45;23.98;;;10.55;;
58657;SDS011;44428;45.630;13.786;2023-01-13T10:56:37;28.55;;;11.73;;
58657;SDS011;44428;45.630;13.786;2023-01-13T10:59:20;24.65;;;11.63;;
58657;SDS011;44428;45.630;13.786;2023-01-13T11:04:36;21.25;;;11.82;;
58657;SDS011;44428;45.630;13.786;2023-01-13T11:07:15;37.38;;;12.07;;
58657;SDS011;44428;45.630;13.786;2023-01-13T11:09:45;38.72;;;11.65;;
58657;SDS011;44428;45.630;13.786;2023-01-13T11:12:31;27.02;;;9.88;;
58657;SDS011;44428;45.630;13.786;2023-01-13T11:14:59;17.60;;;8.25;;
58657;SDS011;44428;45.630;13.786;2023-01-13T11:17:38;18.10;;;8.50;;
58657;SDS011;44428;45.630;13.786;2023-01-13T11:22:45;13.15;;;7.03;;
58657;SDS011;44428;45.630;13.786;2023-01-13T11:25:18;14.35;;;6.13;;
58657;SDS011;44428;45.630;13.786;2023-01-13T11:27:54;14.15;;;7.22;;
58657;SDS011;44428;45.630;13.786;2023-01-13T11:30:37;11.52;;;5.57;;
58657;SDS011;44428;45.630;13.786;2023-01-13T11:41:13;13.10;;;5.68;;
58657;SDS011;44428;45.630;13.786;2023-01-13T11:43:49;10.73;;;4.78;;
58657;SDS011;44428;45.630;13.786;2023-01-13T11:46:21;9.32;;;5.05;;
58657;SDS011;44428;45.630;13.786;2023-01-13T11:48:50;9.95;;;4.13;;
58657;SDS011;44428;45.630;13.786;2023-01-13T11:51:19;12.57;;;4.63;;
58657;SDS011;44428;45.630;13.786;2023-01-13T12:26:11;4.13;;;2.53;;
58657;SDS011;44428;45.630;13.786;2023-01-13T12:28:52;5.43;;;2.60;;
58657;SDS011;44428;45.630;13.786;2023-01-13T12:31:22;8.50;;;3.20;;
58657;SDS011;44428;45.630;13.786;2023-01-13T12:42:28;5.82;;;3.00;;
58657;SDS011;44428;45.630;13.786;2023-01-13T12:47:41;7.22;;;2.30;;
58657;SDS011;44428;45.630;13.786;2023-01-13T12:52:47;6.63;;;2.45;;
58657;SDS011;44428;45.630;13.786;2023-01-13T12:55:15;5.82;;;2.45;;
58657;SDS011;44428;45.630;13.786;2023-01-13T13:14:03;10.07;;;3.42;;
58657;SDS011;44428;45.630;13.786;2023-01-13T13:16:34;40.78;;;5.70;;
58657;SDS011;44428;45.630;13.786;2023-01-13T13:24:34;9.00;;;3.15;;
58657;SDS011;44428;45.630;13.786;2023-01-13T13:27:15;6.35;;;2.70;;
58657;SDS011;44428;45.630;13.786;2023-01-13T13:29:52;5.25;;;2.30;;
58657;SDS011;44428;45.630;13.786;2023-01-13T13:39:50;4.45;;;2.28;;
58657;SDS011;44428;45.630;13.786;2023-01-13T13:42:37;5.15;;;2.55;;
58657;SDS011;44428;45.630;13.786;2023-01-13T13:45:27;4.30;;;2.35;;
58657;SDS011;44428;45.630;13.786;2023-01-13T13:50:47;5.72;;;3.10;;
58657;SDS011;44428;45.630;13.786;2023-01-13T13:53:14;7.25;;;3.90;;
58657;SDS011;44428;45.630;13.786;2023-01-13T13:55:53;8.25;;;5.03;;
58657;SDS011;44428;45.630;13.786;2023-01-13T13:58:21;8.05;;;5.00;;
58657;SDS011;44428;45.630;13.786;2023-01-13T14:00:50;10.85;;;6.10;;
58657;SDS011;44428;45.630;13.786;2023-01-13T14:03:28;8.02;;;5.35;;
58657;SDS011;44428;45.630;13.786;2023-01-13T14:06:00;8.68;;;6.32;;
58657;SDS011;44428;45.630;13.786;2023-01-13T14:08:29;11.13;;;6.20;;
58657;SDS011;44428;45.630;13.786;2023-01-13T14:10:57;12.88;;;6.18;;
58657;SDS011;44428;45.630;13.786;2023-01-13T14:13:24;11.27;;;5.88;;
58657;SDS011;44428;45.630;13.786;2023-01-13T14:15:55;10.32;;;6.32;;
58657;SDS011;44428;45.630;13.786;2023-01-13T14:18:24;12.30;;;6.50;;
58657;SDS011;44428;45.630;13.786;2023-01-13T14:20:51;10.50;;;6.75;;
58657;SDS011;44428;45.630;13.786;2023-01-13T14:23:17;11.15;;;7.38;;
58657;SDS011;44428;45.630;13.786;2023-01-13T14:25:45;9.65;;;6.60;;
58657;SDS011;44428;45.630;13.786;2023-01-13T14:30:56;13.48;;;6.72;;
58657;SDS011;44428;45.630;13.786;2023-01-13T14:34:05;11.55;;;6.88;;
58657;SDS011;44428;45.630;13.786;2023-01-13T14:36:24;14.80;;;7.43;;
58657;SDS011;44428;45.630;13.786;2023-01-13T14:41:36;16.55;;;7.80;;
58657;SDS011;44428;45.630;13.786;2023-01-13T14:46:44;12.98;;;8.15;;
58657;SDS011;44428;45.630;13.786;2023-01-13T14:49:56;12.55;;;7.53;;
58657;SDS011;44428;45.630;13.786;2023-01-13T14:52:16;12.50;;;8.13;;
58657;SDS011;44428;45.630;13.786;2023-01-13T14:57:27;14.57;;;7.72;;
58657;SDS011;44428;45.630;13.786;2023-01-13T15:02:39;17.00;;;9.20;;
58657;SDS011;44428;45.630;13.786;2023-01-13T15:07:57;22.55;;;12.27;;
58657;SDS011;44428;45.630;13.786;2023-01-13T15:13:03;20.73;;;12.63;;
58657;SDS011;44428;45.630;13.786;2023-01-13T15:15:34;22.13;;;12.30;;
58657;SDS011;44428;45.630;13.786;2023-01-13T15:18:12;24.15;;;10.95;;
58657;SDS011;44428;45.630;13.786;2023-01-13T15:20:39;19.70;;;11.07;;
58657;SDS011;44428;45.630;13.786;2023-01-13T15:23:06;27.17;;;11.13;;
58657;SDS011;44428;45.630;13.786;2023-01-13T15:25:39;18.92;;;10.75;;
58657;SDS011;44428;45.630;13.786;2023-01-13T15:28:10;17.67;;;10.65;;
58657;SDS011;44428;45.630;13.786;2023-01-13T15:30:42;19.60;;;10.95;;
58657;SDS011;44428;45.630;13.786;2023-01-13T15:33:07;24.83;;;14.23;;
58657;SDS011;44428;45.630;13.786;2023-01-13T15:35:34;21.15;;;13.70;;
58657;SDS011;44428;45.630;13.786;2023-01-13T15:38:05;21.52;;;12.93;;
58657;SDS011;44428;45.630;13.786;2023-01-13T15:40:38;23.88;;;13.23;;
58657;SDS011;44428;45.630;13.786;2023-01-13T15:43:05;21.73;;;13.07;;
58657;SDS011;44428;45.630;13.786;2023-01-13T15:45:49;24.88;;;14.20;;
58657;SDS011;44428;45.630;13.786;2023-01-13T15:48:33;24.05;;;13.65;;
58657;SDS011;44428;45.630;13.786;2023-01-13T15:50:59;25.92;;;13.88;;
58657;SDS011;44428;45.630;13.786;2023-01-13T15:53:25;19.88;;;13.63;;
58657;SDS011;44428;45.630;13.786;2023-01-13T15:55:52;22.60;;;11.77;;
58657;SDS011;44428;45.630;13.786;2023-01-13T15:58:20;22.77;;;13.20;;
58657;SDS011;44428;45.630;13.786;2023-01-13T16:00:50;22.30;;;11.93;;
58657;SDS011;44428;45.630;13.786;2023-01-13T16:03:16;24.58;;;11.88;;
58657;SDS011;44428;45.630;13.786;2023-01-13T16:05:42;18.55;;;11.55;;
58657;SDS011;44428;45.630;13.786;2023-01-13T16:10:41;25.15;;;12.95;;
58657;SDS011;44428;45.630;13.786;2023-01-13T16:13:09;24.75;;;11.80;;
58657;SDS011;44428;45.630;13.786;2023-01-13T16:15:37;19.05;;;11.23;;
58657;SDS011;44428;45.630;13.786;2023-01-13T16:18:06;21.02;;;12.18;;
58657;SDS011;44428;45.630;13.786;2023-01-13T16:20:36;22.40;;;11.70;;
58657;SDS011;44428;45.630;13.786;2023-01-13T16:23:01;23.98;;;13.30;;
58657;SDS011;44428;45.630;13.786;2023-01-13T16:25:27;24.92;;;12.38;;
58657;SDS011;44428;45.630;13.786;2023-01-13T16:27:53;18.92;;;10.98;;
58657;SDS011;44428;45.630;13.786;2023-01-13T16:30:21;26.42;;;11.68;;
58657;SDS011;44428;45.630;13.786;2023-01-13T16:32:55;20.33;;;11.32;;
58657;SDS011;44428;45.630;13.786;2023-01-13T16:35:21;17.92;;;11.48;;
58657;SDS011;44428;45.630;13.786;2023-01-13T16:37:48;20.77;;;11.63;;
58657;SDS011;44428;45.630;13.786;2023-01-13T16:40:25;24.42;;;11.00;;
58657;SDS011;44428;45.630;13.786;2023-01-13T16:42:51;20.92;;;11.93;;
58657;SDS011;44428;45.630;13.786;2023-01-13T16:45:17;17.52;;;12.18;;
58657;SDS011;44428;45.630;13.786;2023-01-13T16:47:44;22.08;;;11.50;;
58657;SDS011;44428;45.630;13.786;2023-01-13T16:50:55;23.58;;;12.27;;
58657;SDS011;44428;45.630;13.786;2023-01-13T16:53:06;21.75;;;12.65;;
58657;SDS011;44428;45.630;13.786;2023-01-13T16:55:34;24.08;;;12.00;;
58657;SDS011;44428;45.630;13.786;2023-01-13T16:58:00;23.50;;;12.70;;
58657;SDS011;44428;45.630;13.786;2023-01-13T17:00:27;22.13;;;13.10;;
58657;SDS011;44428;45.630;13.786;2023-01-13T17:02:52;23.70;;;14.02;;
58657;SDS011;44428;45.630;13.786;2023-01-13T17:05:18;21.30;;;13.55;;
58657;SDS011;44428;45.630;13.786;2023-01-13T17:07:45;24.40;;;13.02;;
58657;SDS011;44428;45.630;13.786;2023-01-13T17:10:16;24.65;;;12.60;;
58657;SDS011;44428;45.630;13.786;2023-01-13T17:12:44;21.48;;;13.13;;
58657;SDS011;44428;45.630;13.786;2023-01-13T17:15:13;22.90;;;12.27;;
58657;SDS011;44428;45.630;13.786;2023-01-13T17:20:10;20.92;;;13.32;;
58657;SDS011;44428;45.630;13.786;2023-01-13T17:22:38;18.55;;;12.82;;
58657;SDS011;44428;45.630;13.786;2023-01-13T17:25:04;22.85;;;13.45;;
58657;SDS011;44428;45.630;13.786;2023-01-13T17:27:30;20.30;;;13.18;;
58657;SDS011;44428;45.630;13.786;2023-01-13T17:29:56;21.20;;;13.57;;
58657;SDS011;44428;45.630;13.786;2023-01-13T17:32:22;23.52;;;13.02;;
58657;SDS011;44428;45.630;13.786;2023-01-13T17:34:48;20.90;;;13.00;;
58657;SDS011;44428;45.630;13.786;2023-01-13T17:37:15;17.48;;;12.05;;
58657;SDS011;44428;45.630;13.786;2023-01-13T17:39:42;20.77;;;11.45;;
58657;SDS011;44428;45.630;13.786;2023-01-13T17:42:10;17.20;;;9.65;;